Eagan, Minnesota
Current Conditions -  °F | °C
As of 2:53 PM on Tuesday 25 Nov 2014 (Local Time) from KMSP Reporting Station
Overcast Overcast  
Wind Chill: 22°   Ceiling: 5500
Heat Index: 22°   Visibility: 10mi
Dew Point: 12°   Wind: 3mph
Humidity: 66%   Direction: 150°SSE
Pressure: 30.04"   Gusts: NA
Location:  44.82°N, 93.17°W
Report Text: KMSP 252053Z 15003KT 10SM OVC055 M06/M11 A3004 RMK AO2 SLP188 T10561111 56009
Loading
Personal Weather Stations






























Interactive Weather Map New forecast layout! Learn more

10-Day Weather Forecast

Advertisements
Track Severe Weather on mobile